Dzerzhinsk, Russia
Current Conditions -  °F | °C
As of 9:00 AM on Sunday 23 Nov 2014 (Local Time) from UWGG Reporting Station
Overcast Overcast  
Wind Chill: 18°   Ceiling: 1100
Heat Index: 27°   Visibility: 5mi
Dew Point: 23°   Wind: 9mph
Humidity: 86%   Direction: 20°NNE
Pressure: 30.36"   Gusts: NA
Location:  56.24°N, 43.46°E
Report Text: UWGG 230600Z 02004MPS 8000 OVC011 M03/M05 Q1028 NOSIG 36090060RMK QFE764
Loading
Personal Weather Stations






























Interactive Weather Map New forecast layout! Learn more

10-Day Weather Forecast

Advertisements
Track Severe Weather on mobile